HAK weather

Haikou Meilan International Airport
Haikou, Hainan Province, China

Public forecast

Using degrees Celsius for public forecast. Weather courtesy of forecast.io.

Current aviation weather report (METAR) for Haikou Meilan International Airport

Retrieved 2019/10/23 09:00 UTC (36 minutes ago):

ZJHK 230900Z 10006MPS 9999 FEW040 29/21 Q1009 NOSIG

Aviation forecast (TAF) for Haikou Meilan International Airport

Retrieved 2019/10/23 06:03 UTC (4 hours ago):

TAF ZJHK 230300Z 2306/2406 12004MPS 5000 BR SCT020 TX31/2306Z TN21/2321Z